createdAt,value
2024-02-11T00:00:31.684Z,25.96
2024-02-11T00:01:31.730Z,25.95
2024-02-11T00:02:31.694Z,25.95
2024-02-11T00:03:31.702Z,25.97
2024-02-11T00:04:31.709Z,25.96
2024-02-11T00:05:31.712Z,25.97
2024-02-11T00:06:31.714Z,25.96
2024-02-11T00:07:31.706Z,25.95
2024-02-11T00:08:31.740Z,25.93
2024-02-11T00:09:31.710Z,25.94
2024-02-11T00:10:31.677Z,25.94
2024-02-11T00:11:31.724Z,25.95
2024-02-11T00:12:31.715Z,25.95
2024-02-11T00:13:31.727Z,25.95
2024-02-11T00:14:31.722Z,25.94
2024-02-11T00:15:31.692Z,25.95
2024-02-11T00:16:31.713Z,25.94
2024-02-11T00:17:31.766Z,25.94
2024-02-11T00:18:31.714Z,25.94
2024-02-11T00:19:31.823Z,25.94
2024-02-11T00:20:31.805Z,25.94
2024-02-11T00:21:31.717Z,25.96
2024-02-11T00:22:31.718Z,25.95
2024-02-11T00:23:31.705Z,25.94
2024-02-11T00:24:31.710Z,25.95
2024-02-11T00:25:31.817Z,25.96
2024-02-11T00:26:31.730Z,25.96
2024-02-11T00:27:31.724Z,25.96
2024-02-11T00:28:31.756Z,25.95
2024-02-11T00:29:31.737Z,25.95
2024-02-11T00:30:31.758Z,25.96
2024-02-11T00:31:31.723Z,25.97
2024-02-11T00:32:31.793Z,25.94
2024-02-11T00:33:31.901Z,25.97
2024-02-11T00:34:31.736Z,25.95
2024-02-11T00:35:31.747Z,25.95
2024-02-11T00:36:31.733Z,25.95
2024-02-11T00:37:31.802Z,25.96
2024-02-11T00:38:31.837Z,25.96
2024-02-11T00:39:31.803Z,25.95
2024-02-11T00:40:31.902Z,25.95
2024-02-11T00:41:31.853Z,25.94
2024-02-11T00:42:31.870Z,25.93
2024-02-11T00:43:31.954Z,25.95
2024-02-11T00:44:31.954Z,25.96
2024-02-11T00:45:31.979Z,25.96
2024-02-11T00:46:32.013Z,25.95
2024-02-11T00:47:32.143Z,25.94
2024-02-11T00:48:32.168Z,25.95
2024-02-11T00:49:32.121Z,25.95
2024-02-11T00:50:32.117Z,25.96
2024-02-11T00:51:32.164Z,25.95
2024-02-11T00:52:32.218Z,25.95
2024-02-11T00:53:32.227Z,25.96
2024-02-11T00:54:32.188Z,25.94
2024-02-11T00:55:32.232Z,25.93
2024-02-11T00:56:32.320Z,25.93
2024-02-11T00:57:32.292Z,25.93
2024-02-11T00:58:32.325Z,25.94
2024-02-11T00:59:32.346Z,25.94
2024-02-11T01:00:32.409Z,25.94
2024-02-11T01:01:32.429Z,25.96
2024-02-11T01:02:32.916Z,25.96
2024-02-11T01:03:32.450Z,25.96
2024-02-11T01:04:32.553Z,25.94
2024-02-11T01:05:32.533Z,25.94
2024-02-11T01:06:32.551Z,25.94
2024-02-11T01:07:32.652Z,25.95
2024-02-11T01:08:32.597Z,25.93
2024-02-11T01:09:32.617Z,25.95
2024-02-11T01:10:32.811Z,25.95
2024-02-11T01:11:32.699Z,25.97
2024-02-11T01:12:32.716Z,25.96
2024-02-11T01:13:32.775Z,25.95
2024-02-11T01:14:32.767Z,25.98
2024-02-11T01:15:32.784Z,25.96
2024-02-11T01:16:32.837Z,25.96
2024-02-11T01:17:32.888Z,25.95
2024-02-11T01:18:32.951Z,25.95
2024-02-11T01:19:32.973Z,25.95
2024-02-11T01:20:32.929Z,25.98
2024-02-11T01:21:32.963Z,25.94
2024-02-11T01:22:32.996Z,25.96
2024-02-11T01:23:32.996Z,25.96
2024-02-11T01:24:33.058Z,25.97
2024-02-11T01:25:33.052Z,25.95
2024-02-11T01:26:33.088Z,25.97
2024-02-11T01:27:33.131Z,25.97
2024-02-11T01:28:33.172Z,25.97
2024-02-11T01:29:33.198Z,25.95
2024-02-11T01:30:33.177Z,25.95
2024-02-11T01:31:33.316Z,25.95
2024-02-11T01:32:33.285Z,25.97
2024-02-11T01:33:33.308Z,25.96
2024-02-11T01:34:33.446Z,25.96
2024-02-11T01:35:33.344Z,25.97
2024-02-11T01:36:33.370Z,25.97
2024-02-11T01:37:33.444Z,25.98
2024-02-11T01:38:33.435Z,25.95
2024-02-11T01:39:33.448Z,25.97
2024-02-11T01:40:33.554Z,25.95
2024-02-11T01:41:33.528Z,25.96
2024-02-11T01:42:33.579Z,25.95
2024-02-11T01:43:33.620Z,25.95
2024-02-11T01:44:33.623Z,25.95
2024-02-11T01:45:33.630Z,25.95
2024-02-11T01:46:33.658Z,25.95
2024-02-11T01:47:33.713Z,25.94
2024-02-11T01:48:33.846Z,25.96
2024-02-11T01:49:33.786Z,25.94
2024-02-11T01:50:33.750Z,25.95
2024-02-11T01:51:33.829Z,25.96
2024-02-11T01:52:33.885Z,25.97
2024-02-11T01:53:33.852Z,25.95
2024-02-11T01:54:33.897Z,25.95
2024-02-11T01:55:33.985Z,25.95
2024-02-11T01:56:33.967Z,25.94
2024-02-11T01:57:34.001Z,25.96
2024-02-11T01:58:34.061Z,25.96
2024-02-11T01:59:34.054Z,25.96
2024-02-11T02:00:34.067Z,25.96
2024-02-11T02:01:34.197Z,25.95
2024-02-11T02:02:34.156Z,25.96
2024-02-11T02:03:34.205Z,25.95
2024-02-11T02:04:34.401Z,25.95
2024-02-11T02:05:35.017Z,25.95
2024-02-11T02:06:34.279Z,25.94
2024-02-11T02:07:34.320Z,25.96
2024-02-11T02:08:34.326Z,25.97
2024-02-11T02:09:34.347Z,25.96
2024-02-11T02:10:34.485Z,25.98
2024-02-11T02:11:34.368Z,25.95
2024-02-11T02:12:34.442Z,25.96
2024-02-11T02:13:34.511Z,25.97
2024-02-11T02:14:34.491Z,25.94
2024-02-11T02:15:34.508Z,25.94
2024-02-11T02:16:34.614Z,25.96
2024-02-11T02:17:34.651Z,25.93
2024-02-11T02:18:34.690Z,25.95
2024-02-11T02:19:34.660Z,25.95
2024-02-11T02:20:34.668Z,25.96
2024-02-11T02:21:34.726Z,25.96
2024-02-11T02:22:34.771Z,25.97
2024-02-11T02:23:34.759Z,25.96
2024-02-11T02:24:34.825Z,25.96
2024-02-11T02:25:34.899Z,25.95
2024-02-11T02:26:34.869Z,25.95
2024-02-11T02:27:34.888Z,25.95
2024-02-11T02:28:34.930Z,25.97
2024-02-11T02:29:34.934Z,25.98
2024-02-11T02:30:34.987Z,25.96
2024-02-11T02:31:35.026Z,25.97
2024-02-11T02:32:35.084Z,25.96
2024-02-11T02:33:35.141Z,25.97
2024-02-11T02:34:35.132Z,25.95
2024-02-11T02:35:35.166Z,25.95
2024-02-11T02:36:35.182Z,25.95
2024-02-11T02:37:35.254Z,25.96
2024-02-11T02:38:35.288Z,25.96
2024-02-11T02:39:35.267Z,25.94
2024-02-11T02:40:35.371Z,25.97
2024-02-11T02:41:35.322Z,25.96
2024-02-11T02:42:35.342Z,25.95
2024-02-11T02:43:35.378Z,25.96
2024-02-11T02:44:35.399Z,25.95
2024-02-11T02:45:35.437Z,25.95
2024-02-11T02:46:35.519Z,25.94
2024-02-11T02:47:35.503Z,25.96
2024-02-11T02:48:35.575Z,25.95
2024-02-11T02:49:35.610Z,25.97
2024-02-11T02:50:35.623Z,25.97
2024-02-11T02:51:35.647Z,25.98
2024-02-11T02:52:35.982Z,25.99
2024-02-11T02:53:35.684Z,25.98
2024-02-11T02:54:35.719Z,25.97
2024-02-11T02:55:35.789Z,25.99
2024-02-11T02:56:35.788Z,26.00
2024-02-11T02:57:35.832Z,25.97
2024-02-11T02:58:35.896Z,25.97
2024-02-11T02:59:35.903Z,25.96
2024-02-11T03:00:35.997Z,25.97
2024-02-11T03:01:36.017Z,25.96
2024-02-11T03:02:36.009Z,25.98
2024-02-11T03:03:36.097Z,25.95
2024-02-11T03:04:36.084Z,25.97
2024-02-11T03:05:36.167Z,25.97
2024-02-11T03:06:36.133Z,25.98
2024-02-11T03:07:36.160Z,26.00
2024-02-11T03:08:36.178Z,25.98
2024-02-11T03:09:36.239Z,25.99
2024-02-11T03:10:36.265Z,25.98
2024-02-11T03:11:36.314Z,25.98
2024-02-11T03:12:36.299Z,25.97
2024-02-11T03:13:36.350Z,25.99
2024-02-11T03:14:36.358Z,25.99
2024-02-11T03:15:36.392Z,25.99
2024-02-11T03:16:36.527Z,25.98
2024-02-11T03:17:36.515Z,25.97
2024-02-11T03:18:36.496Z,25.99
2024-02-11T03:19:36.510Z,25.99
2024-02-11T03:20:36.574Z,26.00
2024-02-11T03:21:36.535Z,25.99
2024-02-11T03:22:36.606Z,26.00
2024-02-11T03:23:36.596Z,26.01
2024-02-11T03:24:36.629Z,26.00
2024-02-11T03:25:36.699Z,26.02
2024-02-11T03:26:36.707Z,26.01
2024-02-11T03:27:36.734Z,26.03
2024-02-11T03:28:36.773Z,26.02
2024-02-11T03:29:36.809Z,26.00
2024-02-11T03:30:36.849Z,26.01
2024-02-11T03:31:36.909Z,26.02
2024-02-11T03:32:36.997Z,26.00
2024-02-11T03:33:37.094Z,26.01
2024-02-11T03:34:36.918Z,25.99
2024-02-11T03:35:38.424Z,26.00
2024-02-11T03:36:37.167Z,25.99
2024-02-11T03:37:37.242Z,25.98
2024-02-11T03:38:37.185Z,26.00
2024-02-11T03:39:37.261Z,26.01
2024-02-11T03:40:37.354Z,26.03
2024-02-11T03:41:37.276Z,26.04
2024-02-11T03:42:37.381Z,26.03
2024-02-11T03:43:37.436Z,26.02
2024-02-11T03:44:37.398Z,26.02
2024-02-11T03:45:37.416Z,26.00
2024-02-11T03:46:37.483Z,26.02
2024-02-11T03:47:37.661Z,26.01
2024-02-11T03:48:37.622Z,26.02
2024-02-11T03:49:37.611Z,26.02
2024-02-11T03:50:37.580Z,26.02
2024-02-11T03:51:37.633Z,26.00
2024-02-11T03:52:37.708Z,26.04
2024-02-11T03:53:37.670Z,26.02
2024-02-11T03:54:37.720Z,26.03
2024-02-11T03:55:37.736Z,26.02
2024-02-11T03:56:37.759Z,26.02
2024-02-11T03:57:37.819Z,26.04
2024-02-11T03:58:37.838Z,26.05
2024-02-11T03:59:37.851Z,26.06
2024-02-11T04:00:37.925Z,26.06
2024-02-11T04:01:37.949Z,26.06
2024-02-11T04:02:37.948Z,26.05
2024-02-11T04:03:38.046Z,26.06
2024-02-11T04:04:38.055Z,26.04
2024-02-11T04:05:38.098Z,26.05
2024-02-11T04:06:38.114Z,26.05
2024-02-11T04:07:38.108Z,26.06
2024-02-11T04:08:38.115Z,26.06
2024-02-11T04:09:38.177Z,26.07
2024-02-11T04:10:38.297Z,26.07
2024-02-11T04:11:38.239Z,26.06
2024-02-11T04:12:38.246Z,26.10
2024-02-11T04:13:38.369Z,26.09
2024-02-11T04:14:38.322Z,26.09
2024-02-11T04:15:38.337Z,26.08
2024-02-11T04:16:38.364Z,26.09
2024-02-11T04:17:38.422Z,26.10
2024-02-11T04:18:38.479Z,26.10
2024-02-11T04:19:38.478Z,26.09
2024-02-11T04:20:38.462Z,26.08
2024-02-11T04:21:38.489Z,26.10
2024-02-11T04:22:38.676Z,26.09
2024-02-11T04:23:38.627Z,26.10
2024-02-11T04:24:38.566Z,26.10
2024-02-11T04:25:38.883Z,26.10
2024-02-11T04:26:38.656Z,26.11
2024-02-11T04:27:38.660Z,26.11
2024-02-11T04:28:38.809Z,26.11
2024-02-11T04:29:38.677Z,26.12
2024-02-11T04:30:38.746Z,26.10
2024-02-11T04:31:38.821Z,26.11
2024-02-11T04:32:38.827Z,26.11
2024-02-11T04:33:38.833Z,26.10
2024-02-11T04:34:38.901Z,26.10
2024-02-11T04:35:38.893Z,26.11
2024-02-11T04:36:38.965Z,26.11
2024-02-11T04:37:38.939Z,26.12
2024-02-11T04:38:38.994Z,26.12
2024-02-11T04:39:39.042Z,26.13
2024-02-11T04:40:39.055Z,26.12
2024-02-11T04:41:39.054Z,26.11
2024-02-11T04:42:39.114Z,26.12
2024-02-11T04:43:39.221Z,26.12
2024-02-11T04:44:39.135Z,26.14
2024-02-11T04:45:40.075Z,26.13
2024-02-11T04:46:39.218Z,26.12
2024-02-11T04:47:39.242Z,26.13
2024-02-11T04:48:39.277Z,26.12
2024-02-11T04:49:39.288Z,26.12
2024-02-11T04:50:39.299Z,26.12
2024-02-11T04:51:39.974Z,26.11
2024-02-11T04:52:47.681Z,26.13
2024-02-11T04:53:47.690Z,26.12
2024-02-11T04:54:47.672Z,26.12
2024-02-11T04:55:47.714Z,26.11
2024-02-11T04:56:47.710Z,26.11
2024-02-11T04:57:47.749Z,26.12
2024-02-11T04:58:47.714Z,26.14
2024-02-11T04:59:47.672Z,26.15
2024-02-11T05:00:47.828Z,26.15
2024-02-11T05:01:47.844Z,26.13
2024-02-11T05:02:47.693Z,26.16
2024-02-11T05:03:47.801Z,26.14
2024-02-11T05:04:47.782Z,26.15
2024-02-11T05:05:47.857Z,26.14
2024-02-11T05:06:47.727Z,26.13
2024-02-11T05:07:47.759Z,26.13
2024-02-11T05:08:47.767Z,26.12
2024-02-11T05:09:47.723Z,26.11
2024-02-11T05:10:47.743Z,26.09
2024-02-11T05:11:47.698Z,26.09
2024-02-11T05:12:47.758Z,26.10
2024-02-11T05:13:47.759Z,26.12
2024-02-11T05:14:47.743Z,26.12
2024-02-11T05:15:47.733Z,26.13
2024-02-11T05:16:47.736Z,26.14
2024-02-11T05:17:47.810Z,26.13
2024-02-11T05:18:47.833Z,26.13
2024-02-11T05:19:47.793Z,26.13
2024-02-11T05:20:47.781Z,26.14
2024-02-11T05:21:47.763Z,26.13
2024-02-11T05:22:47.805Z,26.12
2024-02-11T05:23:47.753Z,26.14
2024-02-11T05:24:47.757Z,26.14
2024-02-11T05:25:48.025Z,26.13
2024-02-11T05:26:47.761Z,26.14
2024-02-11T05:27:47.759Z,26.17
2024-02-11T05:28:47.944Z,26.15
2024-02-11T05:29:47.752Z,26.16
2024-02-11T05:30:50.441Z,26.15
2024-02-11T05:31:47.827Z,26.17
2024-02-11T05:32:47.878Z,26.16
2024-02-11T05:33:47.786Z,26.16
2024-02-11T05:34:47.767Z,26.15
2024-02-11T05:35:48.251Z,26.16
2024-02-11T05:36:47.781Z,26.15
2024-02-11T05:37:47.807Z,26.16
2024-02-11T05:38:47.781Z,26.16
2024-02-11T05:39:47.796Z,26.14
2024-02-11T05:40:47.823Z,26.13
2024-02-11T05:41:47.787Z,26.16
2024-02-11T05:42:47.793Z,26.14
2024-02-11T05:43:47.862Z,26.16
2024-02-11T05:44:47.794Z,26.14
2024-02-11T05:45:47.880Z,26.14
2024-02-11T05:46:47.787Z,26.15
2024-02-11T05:47:47.855Z,26.16
2024-02-11T05:48:47.827Z,26.15
2024-02-11T05:49:47.797Z,26.17
2024-02-11T05:50:47.949Z,26.18
2024-02-11T05:51:47.784Z,26.17
2024-02-11T05:52:47.857Z,26.18
2024-02-11T05:53:47.791Z,26.18
2024-02-11T05:54:47.805Z,26.19
2024-02-11T05:55:47.816Z,26.17
2024-02-11T05:56:47.803Z,26.19
2024-02-11T05:57:47.863Z,26.18
2024-02-11T05:58:47.811Z,26.18
2024-02-11T05:59:47.798Z,26.18
2024-02-11T06:00:47.853Z,26.18
2024-02-11T06:01:47.845Z,26.19
2024-02-11T06:02:47.809Z,26.18
2024-02-11T06:03:47.835Z,26.20
2024-02-11T06:04:47.806Z,26.20
2024-02-11T06:05:47.819Z,26.17
2024-02-11T06:06:47.813Z,26.19
2024-02-11T06:07:48.020Z,26.19
2024-02-11T06:08:47.892Z,26.18
2024-02-11T06:09:47.814Z,26.18
2024-02-11T06:10:47.872Z,26.18
2024-02-11T06:11:47.835Z,26.20
2024-02-11T06:12:47.859Z,26.18
2024-02-11T06:13:47.847Z,26.18
2024-02-11T06:14:47.839Z,26.21
2024-02-11T06:15:47.798Z,26.19
2024-02-11T06:16:47.808Z,26.19
2024-02-11T06:17:47.865Z,26.20
2024-02-11T06:18:47.885Z,26.21
2024-02-11T06:19:47.933Z,26.20
2024-02-11T06:20:48.055Z,26.19
2024-02-11T06:21:47.840Z,26.21
2024-02-11T06:22:47.932Z,26.21
2024-02-11T06:23:47.988Z,26.18
2024-02-11T06:24:47.830Z,26.20
2024-02-11T06:25:47.904Z,26.20
2024-02-11T06:26:47.881Z,26.21
2024-02-11T06:27:47.917Z,26.22
2024-02-11T06:28:47.984Z,26.19
2024-02-11T06:29:47.960Z,26.21
2024-02-11T06:30:47.969Z,26.18
2024-02-11T06:31:48.024Z,26.21
2024-02-11T06:32:48.169Z,26.20
2024-02-11T06:33:48.163Z,26.19
2024-02-11T06:34:48.152Z,26.21
2024-02-11T06:35:48.194Z,26.22
2024-02-11T06:36:48.179Z,26.24
2024-02-11T06:37:48.199Z,26.24
2024-02-11T06:38:48.225Z,26.24
2024-02-11T06:39:48.247Z,26.22
2024-02-11T06:40:48.378Z,26.23
2024-02-11T06:41:48.274Z,26.19
2024-02-11T06:42:48.364Z,26.21
2024-02-11T06:43:48.387Z,26.24
2024-02-11T06:44:48.377Z,26.23
2024-02-11T06:45:48.496Z,26.22
2024-02-11T06:46:48.423Z,26.21
2024-02-11T06:47:49.294Z,26.23
2024-02-11T06:48:48.502Z,26.23
2024-02-11T06:49:48.604Z,26.22
2024-02-11T06:50:48.549Z,26.23
2024-02-11T06:51:48.569Z,26.22
2024-02-11T06:52:48.577Z,26.21
2024-02-11T06:53:48.612Z,26.20
2024-02-11T06:54:48.649Z,26.21
2024-02-11T06:55:48.746Z,26.22
2024-02-11T06:56:48.746Z,26.25
2024-02-11T06:57:48.727Z,26.23
2024-02-11T06:58:48.754Z,26.24
2024-02-11T06:59:48.754Z,26.24
2024-02-11T07:00:48.862Z,26.23
2024-02-11T07:01:48.830Z,26.25
2024-02-11T07:02:48.823Z,26.22
2024-02-11T07:03:48.947Z,26.23
2024-02-11T07:04:48.966Z,26.23
2024-02-11T07:05:48.979Z,26.22
2024-02-11T07:06:48.969Z,26.22
2024-02-11T07:07:49.053Z,26.22
2024-02-11T07:08:49.064Z,26.24
2024-02-11T07:09:49.089Z,26.22
2024-02-11T07:10:49.115Z,26.23
2024-02-11T07:11:49.156Z,26.26
2024-02-11T07:12:49.192Z,26.24
2024-02-11T07:13:49.288Z,26.24
2024-02-11T07:14:49.206Z,26.26
2024-02-11T07:15:49.238Z,26.25
2024-02-11T07:16:49.271Z,26.25
2024-02-11T07:17:49.314Z,26.28
2024-02-11T07:18:49.384Z,26.25
2024-02-11T07:19:49.406Z,26.27
2024-02-11T07:20:49.363Z,26.26
2024-02-11T07:21:49.402Z,26.24
2024-02-11T07:22:49.466Z,26.25
2024-02-11T07:23:49.437Z,26.25
2024-02-11T07:24:49.511Z,26.25
2024-02-11T07:25:49.547Z,26.25
2024-02-11T07:26:49.517Z,26.26
2024-02-11T07:27:49.569Z,26.25
2024-02-11T07:28:49.649Z,26.28
2024-02-11T07:29:49.644Z,26.27
2024-02-11T07:30:49.626Z,26.28
2024-02-11T07:31:49.681Z,26.28
2024-02-11T07:32:49.830Z,26.27
2024-02-11T07:33:49.818Z,26.26
2024-02-11T07:34:49.861Z,26.26
2024-02-11T07:35:49.888Z,26.26
2024-02-11T07:36:49.850Z,26.29
2024-02-11T07:37:49.895Z,26.28
2024-02-11T07:38:49.840Z,26.26
2024-02-11T07:39:49.878Z,26.26
2024-02-11T07:40:49.914Z,26.29
2024-02-11T07:41:49.930Z,26.28
2024-02-11T07:42:49.987Z,26.29
2024-02-11T07:43:50.059Z,26.27
2024-02-11T07:44:50.013Z,26.29
2024-02-11T07:45:50.051Z,26.30
2024-02-11T07:46:50.117Z,26.29
2024-02-11T07:47:50.793Z,26.30
2024-02-11T07:48:50.289Z,26.31
2024-02-11T07:49:50.192Z,26.30
2024-02-11T07:50:52.266Z,26.27
2024-02-11T07:51:50.222Z,26.27
2024-02-11T07:52:50.415Z,26.29
2024-02-11T07:53:50.314Z,26.28
2024-02-11T07:54:50.374Z,26.27
2024-02-11T07:55:50.386Z,26.27
2024-02-11T07:56:50.361Z,26.28
2024-02-11T07:57:52.050Z,26.27
2024-02-11T07:58:50.462Z,26.29
2024-02-11T07:59:50.448Z,26.30
2024-02-11T08:00:50.580Z,26.31
2024-02-11T08:01:50.647Z,26.29
2024-02-11T08:02:50.663Z,26.30
2024-02-11T08:03:50.634Z,26.30
2024-02-11T08:04:50.598Z,26.30
2024-02-11T08:05:50.648Z,26.30
2024-02-11T08:06:50.649Z,26.27
2024-02-11T08:07:50.736Z,26.29
2024-02-11T08:08:50.680Z,26.29
2024-02-11T08:09:50.721Z,26.27
2024-02-11T08:10:50.801Z,26.27
2024-02-11T08:11:50.778Z,26.25
2024-02-11T08:12:50.772Z,26.28
2024-02-11T08:13:51.343Z,26.29
2024-02-11T08:14:50.850Z,26.28
2024-02-11T08:15:50.867Z,26.27
2024-02-11T08:16:50.967Z,26.27
2024-02-11T08:17:51.007Z,26.27
2024-02-11T08:18:51.025Z,26.29
2024-02-11T08:19:50.991Z,26.27
2024-02-11T08:20:51.006Z,26.27
2024-02-11T08:21:51.078Z,26.26
2024-02-11T08:22:51.191Z,26.24
2024-02-11T08:23:51.100Z,26.26
2024-02-11T08:24:51.126Z,26.26
2024-02-11T08:25:51.220Z,26.26
2024-02-11T08:26:51.186Z,26.28
2024-02-11T08:27:51.255Z,26.27
2024-02-11T08:28:51.456Z,26.26
2024-02-11T08:29:51.331Z,26.26
2024-02-11T08:30:51.353Z,26.26
2024-02-11T08:31:51.490Z,26.25
2024-02-11T08:32:51.461Z,26.24
2024-02-11T08:33:51.581Z,26.24
2024-02-11T08:34:51.490Z,26.24
2024-02-11T08:35:51.503Z,26.26
2024-02-11T08:36:51.580Z,26.27
2024-02-11T08:37:51.616Z,26.26
2024-02-11T08:38:51.602Z,26.27
2024-02-11T08:39:51.612Z,26.26
2024-02-11T08:40:51.652Z,26.27
2024-02-11T08:41:51.654Z,26.24
2024-02-11T08:42:51.704Z,26.26
2024-02-11T08:43:51.731Z,26.26
2024-02-11T08:44:51.746Z,26.24
2024-02-11T08:45:51.769Z,26.27
2024-02-11T08:46:51.815Z,26.25
2024-02-11T08:47:51.936Z,26.25
2024-02-11T08:48:51.915Z,26.26
2024-02-11T08:49:51.903Z,26.26
2024-02-11T08:50:55.434Z,26.24
2024-02-11T08:51:51.900Z,26.24
2024-02-11T08:52:51.930Z,26.25
2024-02-11T08:53:51.903Z,26.25
2024-02-11T08:54:51.888Z,26.26
2024-02-11T08:55:51.933Z,26.26
2024-02-11T08:56:51.916Z,26.23
2024-02-11T08:57:51.924Z,26.25
2024-02-11T08:58:51.901Z,26.25
2024-02-11T08:59:51.898Z,26.24
2024-02-11T09:00:51.965Z,26.24
2024-02-11T09:01:51.965Z,26.24
2024-02-11T09:02:51.909Z,26.23
2024-02-11T09:03:51.902Z,26.22
2024-02-11T09:04:52.023Z,26.23
2024-02-11T09:05:52.090Z,26.25
2024-02-11T09:06:51.910Z,26.25
2024-02-11T09:07:51.927Z,26.24
2024-02-11T09:08:51.959Z,26.26
2024-02-11T09:09:51.897Z,26.24
2024-02-11T09:10:51.946Z,26.24
2024-02-11T09:11:51.901Z,26.25
2024-02-11T09:12:51.918Z,26.24
2024-02-11T09:13:51.955Z,26.22
2024-02-11T09:14:51.945Z,26.23
2024-02-11T09:15:51.943Z,26.25
2024-02-11T09:16:52.012Z,26.23
2024-02-11T09:17:52.020Z,26.23
2024-02-11T09:18:51.972Z,26.22
2024-02-11T09:19:51.937Z,26.23
2024-02-11T09:20:51.967Z,26.23
2024-02-11T09:21:51.936Z,26.22
2024-02-11T09:22:51.982Z,26.22
2024-02-11T09:23:51.944Z,26.21
2024-02-11T09:24:51.947Z,26.21
2024-02-11T09:25:51.946Z,26.21
2024-02-11T09:26:51.939Z,26.23
2024-02-11T09:27:51.969Z,26.19
2024-02-11T09:28:52.037Z,26.20
2024-02-11T09:29:51.970Z,26.21
2024-02-11T09:30:51.934Z,26.19
2024-02-11T09:31:51.992Z,26.21
2024-02-11T09:32:52.088Z,26.20
2024-02-11T09:33:51.997Z,26.20
2024-02-11T09:34:52.012Z,26.20
2024-02-11T09:35:51.976Z,26.19
2024-02-11T09:36:51.961Z,26.20
2024-02-11T09:37:52.016Z,26.21
2024-02-11T09:38:53.545Z,26.20
2024-02-11T09:39:52.003Z,26.19
2024-02-11T09:40:52.004Z,26.21
2024-02-11T09:41:51.968Z,26.18
2024-02-11T09:42:51.990Z,26.17
2024-02-11T09:43:51.993Z,26.18
2024-02-11T09:44:51.946Z,26.21
2024-02-11T09:45:52.020Z,26.19
2024-02-11T09:46:51.988Z,26.19
2024-02-11T09:47:52.099Z,26.18
2024-02-11T09:48:52.087Z,26.18
2024-02-11T09:49:52.020Z,26.17
2024-02-11T09:50:51.971Z,26.19
2024-02-11T09:51:51.989Z,26.19
2024-02-11T09:52:52.187Z,26.19
2024-02-11T09:53:52.001Z,26.20
2024-02-11T09:54:51.982Z,26.18
2024-02-11T09:55:52.039Z,26.17
2024-02-11T09:56:52.000Z,26.16
2024-02-11T09:57:52.222Z,26.16
2024-02-11T09:58:52.125Z,26.17
2024-02-11T09:59:51.994Z,26.19
2024-02-11T10:00:52.022Z,26.17
2024-02-11T10:01:52.001Z,26.18
2024-02-11T10:02:52.135Z,26.16
2024-02-11T10:03:51.973Z,26.17
2024-02-11T10:04:52.200Z,26.16
2024-02-11T10:05:52.095Z,26.17
2024-02-11T10:06:52.001Z,26.16
2024-02-11T10:07:52.011Z,26.16
2024-02-11T10:08:52.007Z,26.17
2024-02-11T10:09:52.026Z,26.17
2024-02-11T10:10:52.080Z,26.18
2024-02-11T10:11:52.001Z,26.15
2024-02-11T10:12:52.046Z,26.18
2024-02-11T10:13:52.043Z,26.16
2024-02-11T10:14:52.022Z,26.17
2024-02-11T10:15:52.043Z,26.17
2024-02-11T10:16:52.080Z,26.15
2024-02-11T10:17:52.062Z,26.16
2024-02-11T10:18:52.073Z,26.16
2024-02-11T10:19:52.051Z,26.15
2024-02-11T10:20:52.029Z,26.16
2024-02-11T10:21:52.037Z,26.15
2024-02-11T10:22:52.055Z,26.16
2024-02-11T10:23:52.048Z,26.15
2024-02-11T10:24:52.043Z,26.16
2024-02-11T10:25:52.048Z,26.17
2024-02-11T10:26:52.028Z,26.16
2024-02-11T10:27:52.043Z,26.16
2024-02-11T10:28:52.076Z,26.13
2024-02-11T10:29:52.315Z,26.14
2024-02-11T10:30:52.032Z,26.12
2024-02-11T10:31:52.123Z,26.12
2024-02-11T10:32:52.194Z,26.12
2024-02-11T10:33:52.218Z,26.12
2024-02-11T10:34:52.138Z,26.11
2024-02-11T10:35:52.109Z,26.10
2024-02-11T10:36:52.126Z,26.10
2024-02-11T10:37:54.755Z,26.10
2024-02-11T10:38:52.080Z,26.11
2024-02-11T10:39:52.068Z,26.11
2024-02-11T10:40:52.088Z,26.10
2024-02-11T10:41:52.060Z,26.13
2024-02-11T10:42:52.135Z,26.14
2024-02-11T10:43:52.120Z,26.13
2024-02-11T10:44:52.088Z,26.12
2024-02-11T10:45:52.149Z,26.15
2024-02-11T10:46:52.147Z,26.13
2024-02-11T10:47:52.072Z,26.16
2024-02-11T10:48:56.037Z,26.14
2024-02-11T10:49:53.132Z,26.17
2024-02-11T10:50:52.090Z,26.15
2024-02-11T10:51:52.090Z,26.15
2024-02-11T10:52:52.115Z,26.12
2024-02-11T10:53:52.115Z,26.14
2024-02-11T10:54:52.083Z,26.13
2024-02-11T10:55:52.175Z,26.11
2024-02-11T10:56:52.117Z,26.11
2024-02-11T10:57:52.137Z,26.11
2024-02-11T10:58:52.122Z,26.12
2024-02-11T10:59:52.155Z,26.12
2024-02-11T11:00:53.028Z,26.11
2024-02-11T11:01:52.291Z,26.11
2024-02-11T11:02:52.255Z,26.11
2024-02-11T11:03:52.347Z,26.12
2024-02-11T11:04:52.377Z,26.12
2024-02-11T11:05:52.416Z,26.13
2024-02-11T11:06:52.372Z,26.13
2024-02-11T11:07:52.370Z,26.12
2024-02-11T11:08:52.398Z,26.09
2024-02-11T11:09:52.401Z,26.10
2024-02-11T11:10:52.434Z,26.12
2024-02-11T11:11:52.507Z,26.11
2024-02-11T11:12:52.499Z,26.09
2024-02-11T11:13:52.565Z,26.09
2024-02-11T11:14:52.558Z,26.11
2024-02-11T11:15:52.561Z,26.11
2024-02-11T11:16:52.604Z,26.11
2024-02-11T11:17:52.616Z,26.10
2024-02-11T11:18:52.645Z,26.12
2024-02-11T11:19:52.644Z,26.11
2024-02-11T11:20:52.635Z,26.10
2024-02-11T11:21:52.693Z,26.09
2024-02-11T11:22:53.103Z,26.09
2024-02-11T11:23:52.702Z,26.10
2024-02-11T11:24:53.604Z,26.09
2024-02-11T11:25:52.792Z,26.09
2024-02-11T11:26:52.823Z,26.10
2024-02-11T11:27:52.815Z,26.08
2024-02-11T11:28:52.841Z,26.09
2024-02-11T11:29:52.936Z,26.07
2024-02-11T11:30:52.883Z,26.06
2024-02-11T11:31:52.940Z,26.06
2024-02-11T11:32:52.969Z,26.08
2024-02-11T11:33:52.957Z,26.07
2024-02-11T11:34:53.071Z,26.07
2024-02-11T11:35:52.997Z,26.08
2024-02-11T11:36:53.014Z,26.06
2024-02-11T11:37:53.103Z,26.08
2024-02-11T11:38:53.064Z,26.10
2024-02-11T11:39:53.096Z,26.07
2024-02-11T11:40:53.109Z,26.07
2024-02-11T11:41:53.144Z,26.08
2024-02-11T11:42:53.164Z,26.08
2024-02-11T11:43:53.159Z,26.09
2024-02-11T11:44:53.165Z,26.09
2024-02-11T11:45:53.218Z,26.09
2024-02-11T11:46:53.282Z,26.07
2024-02-11T11:47:53.302Z,26.08
2024-02-11T11:48:53.316Z,26.08
2024-02-11T11:49:53.349Z,26.07
2024-02-11T11:50:53.332Z,26.09
2024-02-11T11:51:53.361Z,26.06
2024-02-11T11:52:53.437Z,26.07
2024-02-11T11:53:53.395Z,26.05
2024-02-11T11:54:53.467Z,26.04
2024-02-11T11:55:53.585Z,26.04
2024-02-11T11:56:53.436Z,26.04
2024-02-11T11:57:53.512Z,26.04
2024-02-11T11:58:53.557Z,26.04
2024-02-11T11:59:53.516Z,26.05
2024-02-11T12:00:53.586Z,26.05
2024-02-11T12:01:53.626Z,26.05
2024-02-11T12:02:53.580Z,26.04
2024-02-11T12:03:53.711Z,26.02
2024-02-11T12:04:53.624Z,26.05
2024-02-11T12:05:53.822Z,26.03
2024-02-11T12:06:53.641Z,26.03
2024-02-11T12:07:53.713Z,26.05
2024-02-11T12:08:53.685Z,26.05
2024-02-11T12:09:53.751Z,26.06
2024-02-11T12:10:53.801Z,26.06
2024-02-11T12:11:53.766Z,26.04
2024-02-11T12:12:53.752Z,26.04
2024-02-11T12:13:53.891Z,26.05
2024-02-11T12:14:53.835Z,26.06
2024-02-11T12:15:53.840Z,26.09
2024-02-11T12:16:53.881Z,26.08
2024-02-11T12:17:53.907Z,26.06
2024-02-11T12:18:53.933Z,26.08
2024-02-11T12:19:53.986Z,26.08
2024-02-11T12:20:53.937Z,26.06
2024-02-11T12:21:53.990Z,26.05
2024-02-11T12:22:54.019Z,26.05
2024-02-11T12:23:54.009Z,26.05
2024-02-11T12:24:54.002Z,26.04
2024-02-11T12:25:54.133Z,26.05
2024-02-11T12:26:54.071Z,26.05
2024-02-11T12:27:54.064Z,26.05
2024-02-11T12:28:54.178Z,26.03
2024-02-11T12:29:54.142Z,26.03
2024-02-11T12:30:54.160Z,26.03
2024-02-11T12:31:54.270Z,26.05
2024-02-11T12:32:54.366Z,26.05
2024-02-11T12:33:54.419Z,26.06
2024-02-11T12:34:54.287Z,26.05
2024-02-11T12:35:54.245Z,26.07
2024-02-11T12:36:54.267Z,26.04
2024-02-11T12:37:54.362Z,26.04
2024-02-11T12:38:54.346Z,26.05
2024-02-11T12:39:54.324Z,26.05
2024-02-11T12:40:54.455Z,26.04
2024-02-11T12:41:54.355Z,26.04
2024-02-11T12:42:54.376Z,26.05
2024-02-11T12:43:54.614Z,26.04
2024-02-11T12:44:54.438Z,26.05
2024-02-11T12:45:54.470Z,26.06
2024-02-11T12:46:54.594Z,26.07
2024-02-11T12:47:54.545Z,26.07
2024-02-11T12:48:54.710Z,26.07
2024-02-11T12:49:54.576Z,26.06
2024-02-11T12:50:54.620Z,26.08
2024-02-11T12:51:54.612Z,26.07
2024-02-11T12:52:54.774Z,26.07